Time;durP1;ratioP1;P1;durP2;ratioP2;P2;SDS_P1;SDS_P2;PMS_P1;PMS_P2;Temp;Humidity;BMP_temperature;BMP_pressure;BME280_temperature;BME280_humidity;BME280_pressure;Samples;Min_cycle;Max_cycle;Signal;HPM_P1;HPM_P2
2022/03/19 00:00:51;;;;;;;;;;;8.90;77.50;;;;;;5045740;28;19936;-75
2022/03/19 00:03:18;;;;;;;;;;;8.80;77.40;;;;;;5050792;28;19928;-76
2022/03/19 00:05:46;;;;;;;;;;;8.80;77.50;;;;;;5045864;28;20655;-76
2022/03/19 00:08:16;;;;;;;;;;;8.80;77.50;;;;;;5048473;28;19929;-75
2022/03/19 00:10:42;;;;;;;;;;;8.80;77.60;;;;;;5046217;28;19978;-75
2022/03/19 00:13:10;;;;;;;;;;;8.70;77.60;;;;;;5045735;28;19933;-75
2022/03/19 00:15:37;;;;;;;;;;;8.70;77.70;;;;;;5042924;28;19932;-75
2022/03/19 00:18:03;;;;;;;;;;;8.70;77.90;;;;;;5047228;28;19971;-76
2022/03/19 00:20:30;;;;;;;;;;;8.60;77.90;;;;;;5046909;28;19936;-75
2022/03/19 00:22:58;;;;;;;;;;;8.70;78.10;;;;;;5045229;28;19928;-76
2022/03/19 00:25:24;;;;;;;;;;;8.60;78.00;;;;;;5046980;28;19959;-75
2022/03/19 00:27:51;;;;;;;;;;;8.70;78.10;;;;;;5047778;28;19929;-76
2022/03/19 00:30:18;;;;;;;;;;;8.60;78.20;;;;;;5044291;28;19936;-76
2022/03/19 00:32:44;;;;;;;;;;;8.60;78.30;;;;;;5046063;28;19935;-76
2022/03/19 00:35:12;;;;;;;;;;;8.60;78.30;;;;;;5043177;28;19928;-75
2022/03/19 00:37:46;;;;;;;;;;;8.50;78.20;;;;;;5047380;28;19954;-76
2022/03/19 00:40:15;;;;;;;;;;;8.50;78.30;;;;;;5044489;28;19936;-76
2022/03/19 00:42:42;;;;;;;;;;;8.50;79.10;;;;;;5046501;28;19929;-75
2022/03/19 00:45:09;;;;;;;;;;;8.50;78.50;;;;;;5045216;28;19964;-75
2022/03/19 00:47:36;;;;;;;;;;;8.50;78.50;;;;;;5052951;28;20046;-76
2022/03/19 00:50:02;;;;;;;;;;;8.50;78.50;;;;;;5046910;28;19955;-75
2022/03/19 00:52:29;;;;;;;;;;;8.40;78.50;;;;;;5044638;28;19933;-75
2022/03/19 00:54:56;;;;;;;;;;;8.50;78.50;;;;;;5046214;28;19932;-76
2022/03/19 00:57:23;;;;;;;;;;;8.40;78.50;;;;;;5045044;28;19929;-75
2022/03/19 00:59:50;;;;;;;;;;;8.40;78.60;;;;;;5046764;28;19929;-75
2022/03/19 01:02:17;;;;;;;;;;;8.40;78.70;;;;;;5043342;28;19936;-75
2022/03/19 01:04:43;;;;;;;;;;;8.30;78.70;;;;;;5043318;28;20435;-76
2022/03/19 01:07:10;;;;;;;;;;;8.30;78.70;;;;;;5045350;28;20640;-75
2022/03/19 01:09:36;;;;;;;;;;;8.30;78.80;;;;;;5048334;28;19928;-75
2022/03/19 01:12:03;;;;;;;;;;;8.30;78.80;;;;;;5043368;28;19933;-76
2022/03/19 01:14:31;;;;;;;;;;;8.30;78.90;;;;;;5041657;28;19933;-75
2022/03/19 01:16:57;;;;;;;;;;;8.30;79.00;;;;;;5047247;28;19963;-76
2022/03/19 01:22:05;;;;;;;;;;;8.20;79.10;;;;;;5045035;28;19925;-75
2022/03/19 01:24:31;;;;;;;;;;;8.20;79.10;;;;;;5044038;28;19991;-75
2022/03/19 01:26:58;;;;;;;;;;;8.10;79.10;;;;;;5043296;28;19968;-76
2022/03/19 01:29:24;;;;;;;;;;;8.20;79.20;;;;;;5042393;28;19935;-76
2022/03/19 01:31:52;;;;;;;;;;;8.20;79.30;;;;;;5041972;28;19936;-75
2022/03/19 01:34:19;;;;;;;;;;;8.20;79.50;;;;;;5047772;28;19936;-75
2022/03/19 01:36:45;;;;;;;;;;;8.10;79.60;;;;;;5043965;28;19944;-76
2022/03/19 01:39:12;;;;;;;;;;;8.10;79.50;;;;;;5044756;28;19947;-75
2022/03/19 01:41:40;;;;;;;;;;;8.10;79.50;;;;;;5046161;28;19929;-75
2022/03/19 01:44:07;;;;;;;;;;;8.00;79.50;;;;;;5048850;28;19928;-75
2022/03/19 01:46:48;;;;;;;;;;;8.00;79.50;;;;;;5044940;28;20032;-76
2022/03/19 01:49:16;;;;;;;;;;;8.00;79.60;;;;;;5041421;28;19939;-75
2022/03/19 01:51:43;;;;;;;;;;;8.00;79.60;;;;;;5043130;28;19939;-75
2022/03/19 01:54:09;;;;;;;;;;;8.00;79.70;;;;;;5042434;28;19940;-75
2022/03/19 01:56:36;;;;;;;;;;;8.00;79.80;;;;;;5040810;28;20411;-76
2022/03/19 01:59:03;;;;;;;;;;;8.00;80.00;;;;;;5044582;28;19936;-75
2022/03/19 02:01:29;;;;;;;;;;;7.90;79.90;;;;;;5039485;28;19928;-75
2022/03/19 02:03:57;;;;;;;;;;;7.90;79.80;;;;;;5038629;28;20014;-75
2022/03/19 02:06:26;;;;;;;;;;;7.90;79.90;;;;;;5040898;28;19956;-75
2022/03/19 02:08:52;;;;;;;;;;;7.90;80.00;;;;;;5043548;28;20055;-75
2022/03/19 02:11:20;;;;;;;;;;;7.90;80.00;;;;;;5044729;28;19935;-76
2022/03/19 02:13:47;;;;;;;;;;;7.90;80.00;;;;;;5048224;28;20652;-75
2022/03/19 02:16:13;;;;;;;;;;;7.80;80.10;;;;;;5050685;28;19929;-75
2022/03/19 02:18:40;;;;;;;;;;;7.80;80.20;;;;;;5047609;28;20690;-75
2022/03/19 02:21:07;;;;;;;;;;;7.80;80.10;;;;;;5042464;28;20297;-75
2022/03/19 02:26:19;;;;;;;;;;;7.80;80.20;;;;;;5046346;28;20041;-76
2022/03/19 02:28:45;;;;;;;;;;;7.80;80.20;;;;;;5040474;28;19929;-75
2022/03/19 02:31:12;;;;;;;;;;;7.80;80.20;;;;;;5044997;28;19936;-75
2022/03/19 02:33:38;;;;;;;;;;;7.70;80.20;;;;;;5045846;28;20397;-75
2022/03/19 02:36:05;;;;;;;;;;;7.70;80.10;;;;;;5047185;28;19936;-75
2022/03/19 02:38:32;;;;;;;;;;;7.70;80.20;;;;;;5047021;28;19929;-75
2022/03/19 02:41:03;;;;;;;;;;;7.70;80.30;;;;;;5046789;28;19937;-75
2022/03/19 02:43:29;;;;;;;;;;;7.70;80.30;;;;;;5047191;28;19929;-75
2022/03/19 02:45:56;;;;;;;;;;;7.70;80.40;;;;;;5051762;28;20320;-75
2022/03/19 02:48:23;;;;;;;;;;;7.70;80.40;;;;;;5046249;28;19933;-75
2022/03/19 02:50:49;;;;;;;;;;;7.60;80.50;;;;;;5048136;28;19929;-75
2022/03/19 02:53:16;;;;;;;;;;;7.60;80.50;;;;;;5047431;28;19933;-75
2022/03/19 02:55:43;;;;;;;;;;;7.60;80.60;;;;;;5050113;28;21709;-75
2022/03/19 02:58:11;;;;;;;;;;;7.60;80.60;;;;;;5044796;28;20002;-75
2022/03/19 03:00:38;;;;;;;;;;;7.60;80.70;;;;;;5051148;28;19928;-75
2022/03/19 03:03:05;;;;;;;;;;;7.60;80.70;;;;;;5046161;28;19940;-75
2022/03/19 03:05:33;;;;;;;;;;;7.50;80.70;;;;;;5047647;28;19929;-75
2022/03/19 03:08:00;;;;;;;;;;;7.50;80.70;;;;;;5046279;28;19933;-75
2022/03/19 03:10:27;;;;;;;;;;;7.50;80.70;;;;;;5043648;28;19936;-74
2022/03/19 03:12:53;;;;;;;;;;;7.50;80.70;;;;;;5044912;28;19941;-75
2022/03/19 03:15:21;;;;;;;;;;;7.50;80.70;;;;;;5042537;28;19929;-75
2022/03/19 03:17:48;;;;;;;;;;;7.50;80.70;;;;;;5046306;28;20045;-76
2022/03/19 03:20:14;;;;;;;;;;;7.40;80.70;;;;;;5042388;28;19929;-75
2022/03/19 03:22:44;;;;;;;;;;;7.40;80.90;;;;;;5041054;28;19936;-75
2022/03/19 03:25:10;;;;;;;;;;;7.40;80.80;;;;;;5039828;28;19929;-75
2022/03/19 03:27:37;;;;;;;;;;;7.40;80.90;;;;;;5048936;28;20392;-75
2022/03/19 03:30:04;;;;;;;;;;;7.40;81.00;;;;;;5047842;28;19929;-75
2022/03/19 03:32:32;;;;;;;;;;;7.40;81.00;;;;;;5045593;28;20345;-75
2022/03/19 03:34:59;;;;;;;;;;;7.40;81.00;;;;;;5045659;28;20466;-75
2022/03/19 03:37:25;;;;;;;;;;;7.40;81.20;;;;;;5051054;28;20392;-75
2022/03/19 03:39:52;;;;;;;;;;;7.30;81.20;;;;;;5046643;28;19936;-74
2022/03/19 03:42:18;;;;;;;;;;;7.30;81.30;;;;;;5047129;28;19936;-75
2022/03/19 03:44:45;;;;;;;;;;;7.40;81.30;;;;;;5050328;28;19935;-75
2022/03/19 03:47:11;;;;;;;;;;;7.30;81.40;;;;;;5046567;28;19929;-75
2022/03/19 03:49:39;;;;;;;;;;;7.30;81.30;;;;;;5048197;28;19933;-74
2022/03/19 03:52:07;;;;;;;;;;;7.30;81.30;;;;;;5044683;28;20454;-75
2022/03/19 03:54:34;;;;;;;;;;;7.30;81.30;;;;;;5050630;28;19928;-75
2022/03/19 03:57:00;;;;;;;;;;;7.30;81.40;;;;;;5046579;28;19929;-74
2022/03/19 03:59:27;;;;;;;;;;;7.20;81.40;;;;;;5043557;28;20036;-74
2022/03/19 04:01:53;;;;;;;;;;;7.20;81.40;;;;;;5048641;28;19929;-75
2022/03/19 04:04:20;;;;;;;;;;;7.20;81.30;;;;;;5043486;28;19932;-76
2022/03/19 04:06:48;;;;;;;;;;;7.20;81.50;;;;;;5051648;28;20671;-75
2022/03/19 04:09:15;;;;;;;;;;;7.20;81.50;;;;;;5045294;28;19929;-74
2022/03/19 04:11:42;;;;;;;;;;;7.20;81.60;;;;;;5048272;28;20388;-74
2022/03/19 04:14:08;;;;;;;;;;;7.20;81.50;;;;;;5047452;28;19933;-75
2022/03/19 04:16:37;;;;;;;;;;;7.20;81.60;;;;;;5045034;28;20022;-74
2022/03/19 04:19:03;;;;;;;;;;;7.20;81.60;;;;;;5047445;28;19972;-75
2022/03/19 04:21:30;;;;;;;;;;;7.10;81.60;;;;;;5043340;28;19936;-75
2022/03/19 04:23:58;;;;;;;;;;;7.10;81.70;;;;;;5048364;28;20902;-75
2022/03/19 04:26:24;;;;;;;;;;;7.10;81.70;;;;;;5045515;28;20442;-75
2022/03/19 04:28:51;;;;;;;;;;;7.10;81.70;;;;;;5043314;28;19925;-75
2022/03/19 04:31:17;;;;;;;;;;;7.10;81.70;;;;;;5044110;28;19936;-74
2022/03/19 04:33:44;;;;;;;;;;;7.10;81.80;;;;;;5048255;28;19936;-75
2022/03/19 04:38:55;;;;;;;;;;;7.00;81.80;;;;;;5044453;28;19931;-75
2022/03/19 04:41:22;;;;;;;;;;;7.00;81.80;;;;;;5045300;28;20320;-74
2022/03/19 04:43:49;;;;;;;;;;;7.00;81.90;;;;;;5048049;28;20398;-75
2022/03/19 04:46:16;;;;;;;;;;;7.00;82.00;;;;;;5046837;28;19924;-74
2022/03/19 04:48:45;;;;;;;;;;;7.00;82.00;;;;;;5045688;28;19933;-74
2022/03/19 04:51:13;;;;;;;;;;;6.90;81.90;;;;;;5044818;28;20415;-75
2022/03/19 04:53:39;;;;;;;;;;;6.90;82.10;;;;;;5046705;28;19925;-74
2022/03/19 04:56:07;;;;;;;;;;;6.90;82.10;;;;;;5047025;28;20434;-74
2022/03/19 04:58:35;;;;;;;;;;;6.90;82.10;;;;;;5044787;28;19931;-74
2022/03/19 05:01:02;;;;;;;;;;;6.90;82.10;;;;;;5044056;28;19925;-75
2022/03/19 05:03:28;;;;;;;;;;;6.90;82.10;;;;;;5043534;28;19928;-74
2022/03/19 05:05:55;;;;;;;;;;;6.90;82.10;;;;;;5049555;28;19974;-75
2022/03/19 05:08:21;;;;;;;;;;;6.80;82.10;;;;;;5045225;28;19925;-74
2022/03/19 05:13:32;;;;;;;;;;;6.80;82.20;;;;;;5047543;28;20390;-75
2022/03/19 05:16:01;;;;;;;;;;;6.80;82.20;;;;;;5040963;28;20580;-75
2022/03/19 05:18:27;;;;;;;;;;;6.80;82.30;;;;;;5044691;28;19928;-75
2022/03/19 05:20:54;;;;;;;;;;;6.80;82.30;;;;;;5043018;28;20415;-75
2022/03/19 05:23:20;;;;;;;;;;;6.70;82.30;;;;;;5047267;28;20408;-74
2022/03/19 05:25:47;;;;;;;;;;;6.70;82.20;;;;;;5044690;28;20935;-75
2022/03/19 05:28:13;;;;;;;;;;;6.70;82.30;;;;;;5044159;28;20672;-74
2022/03/19 05:30:40;;;;;;;;;;;6.70;82.30;;;;;;5042934;28;21048;-74
2022/03/19 05:33:08;;;;;;;;;;;6.70;82.30;;;;;;5044103;28;19929;-75
2022/03/19 05:35:35;;;;;;;;;;;6.70;82.40;;;;;;5044734;28;19936;-75
2022/03/19 05:38:01;;;;;;;;;;;6.70;82.40;;;;;;5046070;28;20013;-75
2022/03/19 05:40:29;;;;;;;;;;;6.60;82.50;;;;;;5043167;28;19933;-75
2022/03/19 05:42:55;;;;;;;;;;;6.60;82.50;;;;;;5045951;28;19933;-74
2022/03/19 05:45:22;;;;;;;;;;;6.60;82.50;;;;;;5042237;28;19933;-75
2022/03/19 05:47:48;;;;;;;;;;;6.60;82.70;;;;;;5049772;28;19935;-74
2022/03/19 05:50:17;;;;;;;;;;;6.60;82.60;;;;;;5041979;28;20009;-75
2022/03/19 05:52:45;;;;;;;;;;;6.60;82.70;;;;;;5047966;28;19940;-75
2022/03/19 05:55:11;;;;;;;;;;;6.60;82.70;;;;;;5042753;28;19932;-75
2022/03/19 05:57:38;;;;;;;;;;;6.50;82.70;;;;;;5045063;28;19936;-75
2022/03/19 06:00:06;;;;;;;;;;;6.50;82.80;;;;;;5040822;28;19932;-75
2022/03/19 06:02:34;;;;;;;;;;;6.50;82.80;;;;;;5045987;28;20023;-75
2022/03/19 06:05:00;;;;;;;;;;;6.50;82.80;;;;;;5043482;28;20403;-75
2022/03/19 06:07:28;;;;;;;;;;;6.50;82.90;;;;;;5050367;28;20400;-75
2022/03/19 06:09:55;;;;;;;;;;;6.50;82.80;;;;;;5042778;28;20355;-75
2022/03/19 06:12:22;;;;;;;;;;;6.50;82.90;;;;;;5047466;28;19968;-75
2022/03/19 06:14:53;;;;;;;;;;;6.50;83.00;;;;;;5045556;28;20268;-74
2022/03/19 06:17:19;;;;;;;;;;;6.40;82.90;;;;;;5050295;28;19935;-75
2022/03/19 06:19:46;;;;;;;;;;;6.40;83.00;;;;;;5052292;28;19929;-75
2022/03/19 06:22:13;;;;;;;;;;;6.40;83.00;;;;;;5057004;28;19971;-75
2022/03/19 06:24:40;;;;;;;;;;;6.40;83.10;;;;;;5049755;28;19929;-75
2022/03/19 06:27:07;;;;;;;;;;;6.40;83.10;;;;;;5048576;28;19928;-74
2022/03/19 06:29:34;;;;;;;;;;;6.40;83.10;;;;;;5048970;28;19929;-76
2022/03/19 06:32:00;;;;;;;;;;;6.40;83.30;;;;;;5048016;28;19968;-75
2022/03/19 06:34:29;;;;;;;;;;;6.30;83.30;;;;;;5050139;28;19928;-76
2022/03/19 06:39:41;;;;;;;;;;;6.30;83.20;;;;;;5049625;28;19993;-76
2022/03/19 06:42:08;;;;;;;;;;;6.30;83.20;;;;;;5047351;28;19942;-69
2022/03/19 06:44:34;;;;;;;;;;;6.30;83.20;;;;;;5056223;28;19929;-69
2022/03/19 06:47:01;;;;;;;;;;;6.30;83.20;;;;;;5050927;28;19928;-70
2022/03/19 06:49:28;;;;;;;;;;;6.30;83.30;;;;;;5050607;28;19935;-70
2022/03/19 06:51:55;;;;;;;;;;;6.30;83.30;;;;;;5049332;28;19932;-69
2022/03/19 06:54:21;;;;;;;;;;;6.30;83.30;;;;;;5053493;28;20600;-72
2022/03/19 06:56:49;;;;;;;;;;;6.30;83.50;;;;;;5050080;28;19933;-69
2022/03/19 06:59:16;;;;;;;;;;;6.30;83.40;;;;;;5049903;28;20426;-69
2022/03/19 07:01:42;;;;;;;;;;;6.30;83.40;;;;;;5045699;28;20426;-75
2022/03/19 07:04:09;;;;;;;;;;;6.30;83.40;;;;;;5048038;28;19928;-75
2022/03/19 07:06:35;;;;;;;;;;;6.20;83.40;;;;;;5047393;28;19939;-74
2022/03/19 07:09:02;;;;;;;;;;;6.30;83.40;;;;;;5047923;28;19929;-74
2022/03/19 07:11:30;;;;;;;;;;;6.20;83.40;;;;;;5050814;28;19928;-75
2022/03/19 07:13:58;;;;;;;;;;;6.20;83.40;;;;;;5046653;28;19929;-74
2022/03/19 07:16:25;;;;;;;;;;;6.20;83.30;;;;;;5045828;28;19935;-74
2022/03/19 07:18:51;;;;;;;;;;;6.30;83.50;;;;;;5046180;28;19933;-74
2022/03/19 07:21:18;;;;;;;;;;;6.30;83.50;;;;;;5043719;28;20483;-74
2022/03/19 07:23:44;;;;;;;;;;;6.30;84.00;;;;;;5046153;28;20411;-74
2022/03/19 07:26:11;;;;;;;;;;;6.30;83.50;;;;;;5046579;28;19933;-75
2022/03/19 07:28:37;;;;;;;;;;;6.30;83.50;;;;;;5043261;28;19951;-75
2022/03/19 07:31:05;;;;;;;;;;;6.30;83.50;;;;;;5047929;28;19928;-74
2022/03/19 07:33:34;;;;;;;;;;;6.20;83.50;;;;;;5049238;28;19933;-74
2022/03/19 07:36:01;;;;;;;;;;;6.30;83.50;;;;;;5051206;28;19937;-74
2022/03/19 07:38:27;;;;;;;;;;;6.20;83.30;;;;;;5048109;28;19928;-74
2022/03/19 07:43:38;;;;;;;;;;;6.30;83.40;;;;;;5046557;28;19932;-74
2022/03/19 07:46:06;;;;;;;;;;;6.30;83.40;;;;;;5049157;28;19928;-74
2022/03/19 07:48:32;;;;;;;;;;;6.30;83.40;;;;;;5044902;28;19928;-74
2022/03/19 07:50:59;;;;;;;;;;;6.30;83.30;;;;;;5049304;28;19936;-74
2022/03/19 07:53:25;;;;;;;;;;;6.30;83.60;;;;;;5048313;28;19928;-75
2022/03/19 07:55:53;;;;;;;;;;;6.30;83.30;;;;;;5050085;28;19933;-74
2022/03/19 07:58:20;;;;;;;;;;;6.30;83.20;;;;;;5050641;28;20025;-74
2022/03/19 08:00:46;;;;;;;;;;;6.30;83.20;;;;;;5046868;28;19936;-75
2022/03/19 08:03:14;;;;;;;;;;;6.30;83.20;;;;;;5045207;28;20466;-75
2022/03/19 08:05:41;;;;;;;;;;;6.30;83.10;;;;;;5047046;28;19928;-75
2022/03/19 08:08:08;;;;;;;;;;;6.30;83.10;;;;;;5049704;28;19929;-75
2022/03/19 08:10:35;;;;;;;;;;;6.40;83.10;;;;;;5046920;28;20398;-75
2022/03/19 08:13:03;;;;;;;;;;;6.40;83.10;;;;;;5045472;28;20535;-75
2022/03/19 08:15:30;;;;;;;;;;;6.40;83.10;;;;;;5046025;28;19928;-75
2022/03/19 08:17:57;;;;;;;;;;;7.50;83.70;;;;;;5045597;28;20393;-75
2022/03/19 08:20:25;;;;;;;;;;;6.50;83.10;;;;;;5048757;28;19932;-74
2022/03/19 08:22:52;;;;;;;;;;;6.40;82.90;;;;;;5045204;28;19944;-74
2022/03/19 08:25:18;;;;;;;;;;;6.50;82.80;;;;;;5047415;28;20419;-74
2022/03/19 08:27:45;;;;;;;;;;;6.50;82.70;;;;;;5048328;28;19929;-74
2022/03/19 08:30:12;;;;;;;;;;;6.50;82.60;;;;;;5047629;28;19933;-75
2022/03/19 08:32:39;;;;;;;;;;;6.60;82.60;;;;;;5044734;28;19928;-74
2022/03/19 08:35:05;;;;;;;;;;;8.80;83.90;;;;;;5046576;28;19936;-75
2022/03/19 08:37:34;;;;;;;;;;;6.60;82.30;;;;;;5046483;28;20594;-75
2022/03/19 08:42:41;;;;;;;;;;;6.70;82.00;;;;;;5038758;28;19924;-75
2022/03/19 08:45:08;;;;;;;;;;;6.70;81.90;;;;;;5039127;28;19936;-75
2022/03/19 08:47:34;;;;;;;;;;;6.80;81.80;;;;;;5044827;28;19935;-75
2022/03/19 08:50:01;;;;;;;;;;;6.80;81.60;;;;;;5048429;28;19929;-74
2022/03/19 08:52:28;;;;;;;;;;;6.90;81.50;;;;;;5050382;28;19951;-74
2022/03/19 08:54:56;;;;;;;;;;;6.90;81.10;;;;;;5049692;28;19940;-75
2022/03/19 08:57:22;;;;;;;;;;;7.00;81.00;;;;;;5046212;28;19932;-75
2022/03/19 08:59:49;;;;;;;;;;;7.00;80.60;;;;;;5047093;28;19929;-76
2022/03/19 09:02:16;;;;;;;;;;;7.10;80.50;;;;;;5050819;28;19987;-75
2022/03/19 09:04:42;;;;;;;;;;;7.10;80.00;;;;;;5044220;28;19932;-74
2022/03/19 09:07:09;;;;;;;;;;;7.10;79.60;;;;;;5045038;28;19944;-75
2022/03/19 09:09:36;;;;;;;;;;;7.30;79.50;;;;;;5045184;28;19929;-75
2022/03/19 09:12:04;;;;;;;;;;;7.30;79.40;;;;;;5051036;28;19960;-75
2022/03/19 09:14:31;;;;;;;;;;;7.30;79.00;;;;;;5039893;28;19929;-74
2022/03/19 09:16:57;;;;;;;;;;;7.40;78.70;;;;;;5044732;28;19936;-74
2022/03/19 09:19:27;;;;;;;;;;;7.40;78.40;;;;;;5043889;28;20290;-75
2022/03/19 09:21:53;;;;;;;;;;;7.50;78.30;;;;;;5049919;28;19935;-75
2022/03/19 09:24:20;;;;;;;;;;;7.50;78.10;;;;;;5044117;28;19929;-75
2022/03/19 09:26:46;;;;;;;;;;;7.50;77.90;;;;;;5045159;28;20392;-75
2022/03/19 09:29:15;;;;;;;;;;;7.60;77.60;;;;;;5044332;28;19932;-74
2022/03/19 09:31:41;;;;;;;;;;;7.60;77.10;;;;;;5046401;28;19929;-75
2022/03/19 09:34:08;;;;;;;;;;;7.70;77.00;;;;;;5043958;28;19932;-75
2022/03/19 09:36:35;;;;;;;;;;;7.80;76.90;;;;;;5045745;28;19929;-75
2022/03/19 09:39:01;;;;;;;;;;;7.80;76.90;;;;;;5043710;28;19929;-75
2022/03/19 09:41:28;;;;;;;;;;;7.80;76.50;;;;;;5042086;28;19925;-74
2022/03/19 09:43:56;;;;;;;;;;;8.20;76.50;;;;;;5048896;28;19939;-74
2022/03/19 09:46:25;;;;;;;;;;;7.90;75.90;;;;;;5047940;28;19968;-74
2022/03/19 09:48:53;;;;;;;;;;;8.00;75.70;;;;;;5046982;28;19932;-74
2022/03/19 09:51:21;;;;;;;;;;;8.00;75.60;;;;;;5049625;28;20015;-74
2022/03/19 09:53:48;;;;;;;;;;;8.10;75.50;;;;;;5046550;28;20047;-74
2022/03/19 09:56:16;;;;;;;;;;;8.10;75.40;;;;;;5050095;28;20006;-75
2022/03/19 09:58:43;;;;;;;;;;;8.20;75.30;;;;;;5038946;28;19947;-75
2022/03/19 10:01:09;;;;;;;;;;;8.20;75.10;;;;;;5046732;28;19931;-74
2022/03/19 10:03:41;;;;;;;;;;;8.30;75.00;;;;;;5042357;28;19933;-74
2022/03/19 10:08:56;;;;;;;;;;;8.40;74.60;;;;;;5041465;28;19932;-75
2022/03/19 10:11:22;;;;;;;;;;;8.40;74.70;;;;;;5042196;28;19940;-74
2022/03/19 10:13:50;;;;;;;;;;;8.50;74.60;;;;;;5046947;28;19936;-74
2022/03/19 10:16:19;;;;;;;;;;;8.50;74.20;;;;;;5043175;28;20031;-75
2022/03/19 10:18:54;;;;;;;;;;;8.60;74.20;;;;;;5045454;28;19928;-75
2022/03/19 10:21:20;;;;;;;;;;;8.60;74.20;;;;;;5045346;28;19928;-74
2022/03/19 10:23:47;;;;;;;;;;;8.60;74.00;;;;;;5043649;28;19929;-76
2022/03/19 10:26:23;;;;;;;;;;;8.70;73.50;;;;;;5044119;28;19929;-75
2022/03/19 10:28:56;;;;;;;;;;;8.70;73.20;;;;;;5041218;28;20011;-74
2022/03/19 10:31:29;;;;;;;;;;;8.80;72.90;;;;;;5037798;28;19929;-74
2022/03/19 10:33:57;;;;;;;;;;;8.90;73.20;;;;;;5041480;28;20521;-74
2022/03/19 10:36:29;;;;;;;;;;;8.90;72.80;;;;;;5040976;28;20365;-74
2022/03/19 10:38:56;;;;;;;;;;;9.00;72.60;;;;;;5042308;28;19932;-75
2022/03/19 10:41:23;;;;;;;;;;;9.00;72.60;;;;;;5041437;28;19983;-74
2022/03/19 10:43:50;;;;;;;;;;;9.10;72.20;;;;;;5046702;28;19936;-74
2022/03/19 10:46:18;;;;;;;;;;;9.20;72.30;;;;;;5046557;28;19945;-74
2022/03/19 10:48:49;;;;;;;;;;;9.20;72.20;;;;;;5044734;28;19928;-74
2022/03/19 10:51:18;;;;;;;;;;;9.30;71.90;;;;;;5047077;28;19929;-74
2022/03/19 10:53:45;;;;;;;;;;;9.40;71.30;;;;;;5047749;28;20389;-73
2022/03/19 10:56:12;;;;;;;;;;;9.40;71.00;;;;;;5046625;28;19941;-74
2022/03/19 10:58:39;;;;;;;;;;;9.40;71.00;;;;;;5046873;28;20305;-74
2022/03/19 11:01:07;;;;;;;;;;;9.50;71.00;;;;;;5050700;28;19936;-74
2022/03/19 11:03:35;;;;;;;;;;;9.60;70.70;;;;;;5046268;28;20480;-75
2022/03/19 11:06:03;;;;;;;;;;;9.60;70.30;;;;;;5048582;28;20320;-74
2022/03/19 11:08:37;;;;;;;;;;;9.70;69.80;;;;;;5046092;28;20045;-74
2022/03/19 11:11:06;;;;;;;;;;;9.70;69.80;;;;;;5048565;28;20666;-74
2022/03/19 11:13:35;;;;;;;;;;;9.80;69.80;;;;;;5046354;28;19940;-74
2022/03/19 11:16:02;;;;;;;;;;;9.90;69.80;;;;;;5045003;28;19933;-75
2022/03/19 11:18:29;;;;;;;;;;;10.00;69.50;;;;;;5048533;28;19932;-74
2022/03/19 11:20:56;;;;;;;;;;;10.00;68.90;;;;;;5046026;28;19932;-73
2022/03/19 11:23:27;;;;;;;;;;;10.10;68.50;;;;;;5048488;28;19939;-73
2022/03/19 11:25:56;;;;;;;;;;;10.10;68.00;;;;;;5043064;28;20100;-75
2022/03/19 11:28:23;;;;;;;;;;;10.20;66.90;;;;;;5042525;28;20248;-73
2022/03/19 11:31:00;;;;;;;;;;;10.20;66.40;;;;;;5043800;28;19936;-74
2022/03/19 11:33:30;;;;;;;;;;;10.30;66.60;;;;;;5043962;28;19925;-74
2022/03/19 11:36:04;;;;;;;;;;;10.30;66.60;;;;;;5047196;28;19990;-74
2022/03/19 11:38:32;;;;;;;;;;;10.40;66.20;;;;;;5043489;28;19959;-74
2022/03/19 11:41:00;;;;;;;;;;;10.50;66.30;;;;;;5051896;28;19944;-74
2022/03/19 11:43:30;;;;;;;;;;;10.60;66.80;;;;;;5047306;28;19928;-74
2022/03/19 11:45:57;;;;;;;;;;;10.60;66.40;;;;;;5046513;28;20010;-74
2022/03/19 11:48:41;;;;;;;;;;;10.60;65.80;;;;;;5045332;28;20027;-74
2022/03/19 11:51:22;;;;;;;;;;;10.70;65.80;;;;;;5048010;28;20031;-74
2022/03/19 11:53:56;;;;;;;;;;;10.80;65.10;;;;;;5043369;28;20290;-74
2022/03/19 11:56:25;;;;;;;;;;;10.80;64.40;;;;;;5049413;28;20440;-73
2022/03/19 11:58:52;;;;;;;;;;;10.90;64.00;;;;;;5052427;28;19928;-74
2022/03/19 12:01:19;;;;;;;;;;;11.00;64.20;;;;;;5047507;28;19936;-74
2022/03/19 12:04:00;;;;;;;;;;;11.00;63.70;;;;;;5038334;28;19929;-73
2022/03/19 12:06:30;;;;;;;;;;;11.00;63.90;;;;;;5043807;28;19936;-74
2022/03/19 12:08:57;;;;;;;;;;;11.10;63.50;;;;;;5042137;28;19933;-74
2022/03/19 12:11:25;;;;;;;;;;;11.20;63.00;;;;;;5043346;28;19941;-73
2022/03/19 12:13:52;;;;;;;;;;;11.20;62.60;;;;;;5041996;28;20008;-74
2022/03/19 12:16:37;;;;;;;;;;;11.30;62.00;;;;;;5043506;28;19933;-74
2022/03/19 12:19:04;;;;;;;;;;;11.30;62.10;;;;;;5042603;28;19940;-74
2022/03/19 12:21:34;;;;;;;;;;;11.30;62.70;;;;;;5045411;28;19936;-74
2022/03/19 12:24:33;;;;;;;;;;;11.40;61.90;;;;;;5044251;28;19933;-73
2022/03/19 12:27:01;;;;;;;;;;;11.40;61.50;;;;;;4941030;28;19942;-74
2022/03/19 12:29:30;;;;;;;;;;;11.40;60.70;;;;;;4942738;28;19934;-74
2022/03/19 12:31:56;;;;;;;;;;;11.40;60.50;;;;;;4987401;28;19925;-74
2022/03/19 12:34:24;;;;;;;;;;;11.40;60.40;;;;;;5039870;28;20252;-73
2022/03/19 12:36:51;;;;;;;;;;;11.40;59.60;;;;;;5044557;28;19929;-73
2022/03/19 12:39:18;;;;;;;;;;;11.50;59.70;;;;;;5042879;28;19932;-74
2022/03/19 12:41:45;;;;;;;;;;;11.50;59.40;;;;;;5040596;28;19928;-74
2022/03/19 12:44:19;;;;;;;;;;;11.50;59.60;;;;;;5043244;28;19936;-74
2022/03/19 12:46:47;;;;;;;;;;;11.50;59.30;;;;;;5039926;28;19936;-74
2022/03/19 12:49:15;;;;;;;;;;;11.60;59.20;;;;;;5042972;28;19956;-74
2022/03/19 12:51:43;;;;;;;;;;;11.60;58.90;;;;;;5043513;28;19987;-73
2022/03/19 12:54:16;;;;;;;;;;;11.70;58.50;;;;;;5041924;28;20456;-74
2022/03/19 12:56:43;;;;;;;;;;;11.70;58.30;;;;;;5044358;28;19936;-74
2022/03/19 12:59:17;;;;;;;;;;;11.80;58.60;;;;;;5041077;28;21546;-74
2022/03/19 13:01:45;;;;;;;;;;;11.80;58.50;;;;;;5043868;28;20027;-72
2022/03/19 13:04:18;;;;;;;;;;;11.90;58.20;;;;;;5046474;28;19964;-74
2022/03/19 13:06:45;;;;;;;;;;;11.90;57.90;;;;;;5044645;28;19931;-74
2022/03/19 13:09:11;;;;;;;;;;;12.00;56.90;;;;;;5043412;28;19979;-74
2022/03/19 13:11:41;;;;;;;;;;;12.10;56.70;;;;;;5045117;28;19925;-74
2022/03/19 13:14:08;;;;;;;;;;;12.10;57.20;;;;;;5047989;28;19959;-74
2022/03/19 13:16:34;;;;;;;;;;;12.10;57.00;;;;;;5045060;28;19925;-74
2022/03/19 13:19:04;;;;;;;;;;;12.20;56.70;;;;;;5045952;28;19936;-73
2022/03/19 13:21:31;;;;;;;;;;;12.20;56.70;;;;;;5044974;28;20007;-75
2022/03/19 13:23:59;;;;;;;;;;;12.10;56.00;;;;;;5047303;28;19936;-74
2022/03/19 13:26:29;;;;;;;;;;;12.20;55.70;;;;;;5045884;28;19936;-74
2022/03/19 13:28:59;;;;;;;;;;;12.30;55.80;;;;;;5044658;28;20428;-74
2022/03/19 13:31:26;;;;;;;;;;;12.20;55.20;;;;;;5043885;28;19935;-74
2022/03/19 13:33:52;;;;;;;;;;;12.20;55.50;;;;;;5044168;28;19936;-74
2022/03/19 13:36:20;;;;;;;;;;;12.30;55.20;;;;;;5055720;28;19935;-75
2022/03/19 13:38:53;;;;;;;;;;;12.30;55.20;;;;;;5045555;28;19940;-75
2022/03/19 13:41:20;;;;;;;;;;;12.40;55.00;;;;;;5041334;28;19975;-74
2022/03/19 13:43:47;;;;;;;;;;;12.40;54.70;;;;;;5043449;28;19929;-74
2022/03/19 13:46:14;;;;;;;;;;;12.50;54.70;;;;;;5043683;28;19956;-74
2022/03/19 13:48:41;;;;;;;;;;;12.50;54.20;;;;;;5040862;28;20369;-73
2022/03/19 13:51:08;;;;;;;;;;;12.50;53.90;;;;;;5044093;28;20008;-74
2022/03/19 13:53:43;;;;;;;;;;;12.60;54.70;;;;;;5049499;28;19936;-74
2022/03/19 13:56:10;;;;;;;;;;;12.60;52.90;;;;;;5048220;28;19929;-74
2022/03/19 13:58:37;;;;;;;;;;;12.70;52.70;;;;;;5042402;28;19983;-74
2022/03/19 14:01:10;;;;;;;;;;;12.70;53.50;;;;;;5046948;28;19944;-74
2022/03/19 14:03:40;;;;;;;;;;;12.80;52.90;;;;;;5044445;28;19928;-74
2022/03/19 14:06:07;;;;;;;;;;;12.80;54.00;;;;;;5042551;28;19932;-74
2022/03/19 14:08:34;;;;;;;;;;;12.90;53.60;;;;;;5040587;28;19932;-74
2022/03/19 14:11:02;;;;;;;;;;;12.90;52.80;;;;;;5044480;28;19963;-74
2022/03/19 14:13:35;;;;;;;;;;;12.90;51.80;;;;;;5040309;28;19929;-73
2022/03/19 14:16:07;;;;;;;;;;;13.00;51.20;;;;;;5040257;28;19929;-74
2022/03/19 14:18:33;;;;;;;;;;;13.00;51.10;;;;;;5042451;28;20428;-74
2022/03/19 14:21:01;;;;;;;;;;;13.00;50.80;;;;;;5043440;28;20393;-73
2022/03/19 14:23:28;;;;;;;;;;;13.00;50.40;;;;;;5043211;28;19943;-73
2022/03/19 14:25:55;;;;;;;;;;;13.10;49.80;;;;;;5044015;28;19928;-74
2022/03/19 14:28:23;;;;;;;;;;;13.10;49.00;;;;;;5047867;28;20051;-74
2022/03/19 14:30:51;;;;;;;;;;;13.10;49.40;;;;;;5049100;28;19928;-73
2022/03/19 14:33:20;;;;;;;;;;;13.20;49.60;;;;;;5049999;28;19929;-73
2022/03/19 14:35:48;;;;;;;;;;;13.20;48.60;;;;;;5051947;28;19936;-74
2022/03/19 14:38:16;;;;;;;;;;;13.20;49.00;;;;;;5049939;28;19929;-74
2022/03/19 14:40:43;;;;;;;;;;;13.20;48.90;;;;;;5051421;28;19933;-74
2022/03/19 14:43:14;;;;;;;;;;;13.30;47.70;;;;;;5054922;28;19959;-74
2022/03/19 14:45:42;;;;;;;;;;;13.30;48.90;;;;;;5051015;28;19936;-74
2022/03/19 14:48:09;;;;;;;;;;;13.30;47.50;;;;;;5045770;28;19929;-74
2022/03/19 14:50:35;;;;;;;;;;;13.40;47.70;;;;;;5047284;28;19940;-74